sensor_id;sensor_type;location;lat;lon;timestamp;P1;durP1;ratioP1;P2;durP2;ratioP2
46505;SDS011;32220;49.808;9.968;2022-08-21T00:00:37;1.60;;;1.50;;
46505;SDS011;32220;49.808;9.968;2022-08-21T00:03:06;1.80;;;1.70;;
46505;SDS011;32220;49.808;9.968;2022-08-21T00:05:36;1.97;;;1.80;;
46505;SDS011;32220;49.808;9.968;2022-08-21T00:08:07;2.07;;;1.80;;
46505;SDS011;32220;49.808;9.968;2022-08-21T00:10:35;2.03;;;1.87;;
46505;SDS011;32220;49.808;9.968;2022-08-21T00:13:03;1.50;;;1.40;;
46505;SDS011;32220;49.808;9.968;2022-08-21T00:15:33;1.63;;;1.53;;
46505;SDS011;32220;49.808;9.968;2022-08-21T00:18:02;2.03;;;1.83;;
46505;SDS011;32220;49.808;9.968;2022-08-21T00:20:30;1.87;;;1.70;;
46505;SDS011;32220;49.808;9.968;2022-08-21T00:22:58;1.80;;;1.70;;
46505;SDS011;32220;49.808;9.968;2022-08-21T00:25:27;1.93;;;1.77;;
46505;SDS011;32220;49.808;9.968;2022-08-21T00:27:56;2.10;;;1.90;;
46505;SDS011;32220;49.808;9.968;2022-08-21T00:30:24;1.80;;;1.70;;
46505;SDS011;32220;49.808;9.968;2022-08-21T00:32:54;1.80;;;1.70;;
46505;SDS011;32220;49.808;9.968;2022-08-21T00:35:23;2.50;;;2.30;;
46505;SDS011;32220;49.808;9.968;2022-08-21T00:37:53;1.70;;;1.60;;
46505;SDS011;32220;49.808;9.968;2022-08-21T00:40:22;1.83;;;1.73;;
46505;SDS011;32220;49.808;9.968;2022-08-21T00:42:53;2.23;;;2.03;;
46505;SDS011;32220;49.808;9.968;2022-08-21T00:45:21;1.90;;;1.80;;
46505;SDS011;32220;49.808;9.968;2022-08-21T00:47:49;2.10;;;1.90;;
46505;SDS011;32220;49.808;9.968;2022-08-21T00:50:17;2.33;;;1.70;;
46505;SDS011;32220;49.808;9.968;2022-08-21T00:52:46;2.07;;;1.87;;
46505;SDS011;32220;49.808;9.968;2022-08-21T00:55:14;1.87;;;1.70;;
46505;SDS011;32220;49.808;9.968;2022-08-21T00:57:44;2.20;;;2.00;;
46505;SDS011;32220;49.808;9.968;2022-08-21T01:00:18;2.17;;;1.97;;
46505;SDS011;32220;49.808;9.968;2022-08-21T01:02:49;1.73;;;1.63;;
46505;SDS011;32220;49.808;9.968;2022-08-21T01:05:17;2.00;;;1.90;;
46505;SDS011;32220;49.808;9.968;2022-08-21T01:07:46;2.00;;;1.80;;
46505;SDS011;32220;49.808;9.968;2022-08-21T01:10:13;2.10;;;1.90;;
46505;SDS011;32220;49.808;9.968;2022-08-21T01:12:41;1.93;;;1.83;;
46505;SDS011;32220;49.808;9.968;2022-08-21T01:15:09;2.00;;;1.80;;
46505;SDS011;32220;49.808;9.968;2022-08-21T01:17:39;2.40;;;1.93;;
46505;SDS011;32220;49.808;9.968;2022-08-21T01:20:09;2.17;;;1.80;;
46505;SDS011;32220;49.808;9.968;2022-08-21T01:22:39;2.80;;;2.20;;
46505;SDS011;32220;49.808;9.968;2022-08-21T01:25:09;2.37;;;2.17;;
46505;SDS011;32220;49.808;9.968;2022-08-21T01:27:38;2.53;;;2.30;;
46505;SDS011;32220;49.808;9.968;2022-08-21T01:30:07;2.37;;;2.17;;
46505;SDS011;32220;49.808;9.968;2022-08-21T01:32:38;2.93;;;2.27;;
46505;SDS011;32220;49.808;9.968;2022-08-21T01:35:06;2.50;;;2.30;;
46505;SDS011;32220;49.808;9.968;2022-08-21T01:37:34;2.93;;;2.73;;
46505;SDS011;32220;49.808;9.968;2022-08-21T01:40:04;2.43;;;2.20;;
46505;SDS011;32220;49.808;9.968;2022-08-21T01:42:34;2.70;;;2.50;;
46505;SDS011;32220;49.808;9.968;2022-08-21T01:45:02;2.07;;;1.90;;
46505;SDS011;32220;49.808;9.968;2022-08-21T01:47:30;2.40;;;2.10;;
46505;SDS011;32220;49.808;9.968;2022-08-21T01:49:58;2.77;;;2.23;;
46505;SDS011;32220;49.808;9.968;2022-08-21T01:52:26;3.37;;;2.40;;
46505;SDS011;32220;49.808;9.968;2022-08-21T01:54:53;2.00;;;1.90;;
46505;SDS011;32220;49.808;9.968;2022-08-21T01:57:23;2.33;;;2.13;;
46505;SDS011;32220;49.808;9.968;2022-08-21T01:59:50;2.57;;;2.10;;
46505;SDS011;32220;49.808;9.968;2022-08-21T02:02:18;2.40;;;2.13;;
46505;SDS011;32220;49.808;9.968;2022-08-21T02:04:45;2.37;;;2.17;;
46505;SDS011;32220;49.808;9.968;2022-08-21T02:07:13;2.37;;;2.17;;
46505;SDS011;32220;49.808;9.968;2022-08-21T02:09:42;2.20;;;2.00;;
46505;SDS011;32220;49.808;9.968;2022-08-21T02:12:09;2.07;;;1.87;;
46505;SDS011;32220;49.808;9.968;2022-08-21T02:14:39;1.80;;;1.70;;
46505;SDS011;32220;49.808;9.968;2022-08-21T02:17:07;1.90;;;1.70;;
46505;SDS011;32220;49.808;9.968;2022-08-21T02:19:35;2.03;;;1.87;;
46505;SDS011;32220;49.808;9.968;2022-08-21T02:22:03;1.87;;;1.63;;
46505;SDS011;32220;49.808;9.968;2022-08-21T02:24:31;1.40;;;1.30;;
46505;SDS011;32220;49.808;9.968;2022-08-21T02:26:58;1.73;;;1.63;;
46505;SDS011;32220;49.808;9.968;2022-08-21T02:29:27;1.77;;;1.67;;
46505;SDS011;32220;49.808;9.968;2022-08-21T02:31:55;2.13;;;1.83;;
46505;SDS011;32220;49.808;9.968;2022-08-21T02:34:23;2.27;;;2.07;;
46505;SDS011;32220;49.808;9.968;2022-08-21T02:36:51;1.90;;;1.70;;
46505;SDS011;32220;49.808;9.968;2022-08-21T02:39:19;1.63;;;1.53;;
46505;SDS011;32220;49.808;9.968;2022-08-21T02:41:46;2.00;;;1.90;;
46505;SDS011;32220;49.808;9.968;2022-08-21T02:44:14;1.83;;;1.73;;
46505;SDS011;32220;49.808;9.968;2022-08-21T02:46:42;2.07;;;1.90;;
46505;SDS011;32220;49.808;9.968;2022-08-21T02:49:11;1.70;;;1.60;;
46505;SDS011;32220;49.808;9.968;2022-08-21T02:51:38;1.50;;;1.40;;
46505;SDS011;32220;49.808;9.968;2022-08-21T02:54:07;2.07;;;1.87;;
46505;SDS011;32220;49.808;9.968;2022-08-21T02:56:35;2.13;;;1.80;;
46505;SDS011;32220;49.808;9.968;2022-08-21T02:59:02;2.10;;;1.73;;
46505;SDS011;32220;49.808;9.968;2022-08-21T03:01:30;2.17;;;2.00;;
46505;SDS011;32220;49.808;9.968;2022-08-21T03:03:57;2.00;;;1.87;;
46505;SDS011;32220;49.808;9.968;2022-08-21T03:06:26;2.50;;;2.30;;
46505;SDS011;32220;49.808;9.968;2022-08-21T03:08:55;2.67;;;1.90;;
46505;SDS011;32220;49.808;9.968;2022-08-21T03:11:23;2.53;;;2.00;;
46505;SDS011;32220;49.808;9.968;2022-08-21T03:13:52;2.27;;;2.07;;
46505;SDS011;32220;49.808;9.968;2022-08-21T03:16:20;2.30;;;2.10;;
46505;SDS011;32220;49.808;9.968;2022-08-21T03:18:48;2.77;;;2.57;;
46505;SDS011;32220;49.808;9.968;2022-08-21T03:21:15;3.10;;;2.80;;
46505;SDS011;32220;49.808;9.968;2022-08-21T03:23:46;4.63;;;3.23;;
46505;SDS011;32220;49.808;9.968;2022-08-21T03:26:13;3.47;;;2.87;;
46505;SDS011;32220;49.808;9.968;2022-08-21T03:28:41;2.70;;;2.50;;
46505;SDS011;32220;49.808;9.968;2022-08-21T03:31:09;4.40;;;2.83;;
46505;SDS011;32220;49.808;9.968;2022-08-21T03:33:36;2.57;;;2.37;;
46505;SDS011;32220;49.808;9.968;2022-08-21T03:36:05;2.70;;;2.50;;
46505;SDS011;32220;49.808;9.968;2022-08-21T03:38:35;2.77;;;2.30;;
46505;SDS011;32220;49.808;9.968;2022-08-21T03:41:06;2.37;;;2.17;;
46505;SDS011;32220;49.808;9.968;2022-08-21T03:43:35;2.37;;;2.17;;
46505;SDS011;32220;49.808;9.968;2022-08-21T03:46:04;1.70;;;1.60;;
46505;SDS011;32220;49.808;9.968;2022-08-21T03:48:34;2.87;;;2.60;;
46505;SDS011;32220;49.808;9.968;2022-08-21T03:51:04;2.50;;;2.30;;
46505;SDS011;32220;49.808;9.968;2022-08-21T03:53:32;2.70;;;1.90;;
46505;SDS011;32220;49.808;9.968;2022-08-21T03:56:00;2.20;;;2.07;;
46505;SDS011;32220;49.808;9.968;2022-08-21T03:58:29;2.10;;;2.00;;
46505;SDS011;32220;49.808;9.968;2022-08-21T04:00:58;1.70;;;1.60;;
46505;SDS011;32220;49.808;9.968;2022-08-21T04:03:27;2.23;;;2.03;;
46505;SDS011;32220;49.808;9.968;2022-08-21T04:05:56;2.20;;;1.83;;
46505;SDS011;32220;49.808;9.968;2022-08-21T04:08:23;2.53;;;2.20;;
46505;SDS011;32220;49.808;9.968;2022-08-21T04:10:52;2.57;;;1.87;;
46505;SDS011;32220;49.808;9.968;2022-08-21T04:13:22;1.90;;;1.80;;
46505;SDS011;32220;49.808;9.968;2022-08-21T04:15:52;2.40;;;2.20;;
46505;SDS011;32220;49.808;9.968;2022-08-21T04:18:19;2.43;;;2.03;;
46505;SDS011;32220;49.808;9.968;2022-08-21T04:20:48;2.30;;;2.10;;
46505;SDS011;32220;49.808;9.968;2022-08-21T04:23:19;2.40;;;2.20;;
46505;SDS011;32220;49.808;9.968;2022-08-21T04:25:47;3.80;;;3.50;;
46505;SDS011;32220;49.808;9.968;2022-08-21T04:28:15;2.83;;;2.60;;
46505;SDS011;32220;49.808;9.968;2022-08-21T04:30:43;2.73;;;2.53;;
46505;SDS011;32220;49.808;9.968;2022-08-21T04:33:13;4.00;;;2.80;;
46505;SDS011;32220;49.808;9.968;2022-08-21T04:35:41;3.17;;;2.87;;
46505;SDS011;32220;49.808;9.968;2022-08-21T04:38:09;3.50;;;3.20;;
46505;SDS011;32220;49.808;9.968;2022-08-21T04:40:38;2.93;;;2.73;;
46505;SDS011;32220;49.808;9.968;2022-08-21T04:43:08;3.40;;;3.10;;
46505;SDS011;32220;49.808;9.968;2022-08-21T04:45:38;2.97;;;2.77;;
46505;SDS011;32220;49.808;9.968;2022-08-21T04:48:09;4.27;;;3.07;;
46505;SDS011;32220;49.808;9.968;2022-08-21T04:50:41;3.30;;;3.00;;
46505;SDS011;32220;49.808;9.968;2022-08-21T04:53:13;3.37;;;3.07;;
46505;SDS011;32220;49.808;9.968;2022-08-21T04:55:43;4.17;;;3.37;;
46505;SDS011;32220;49.808;9.968;2022-08-21T04:58:13;3.67;;;3.37;;
46505;SDS011;32220;49.808;9.968;2022-08-21T05:00:43;3.77;;;3.47;;
46505;SDS011;32220;49.808;9.968;2022-08-21T05:03:12;3.90;;;3.60;;
46505;SDS011;32220;49.808;9.968;2022-08-21T05:05:43;4.03;;;3.67;;
46505;SDS011;32220;49.808;9.968;2022-08-21T05:08:11;3.60;;;3.30;;
46505;SDS011;32220;49.808;9.968;2022-08-21T05:10:41;4.60;;;3.73;;
46505;SDS011;32220;49.808;9.968;2022-08-21T05:13:10;3.23;;;2.97;;
46505;SDS011;32220;49.808;9.968;2022-08-21T05:15:39;3.60;;;3.30;;
46505;SDS011;32220;49.808;9.968;2022-08-21T05:18:08;3.97;;;3.43;;
46505;SDS011;32220;49.808;9.968;2022-08-21T05:20:36;4.13;;;3.73;;
46505;SDS011;32220;49.808;9.968;2022-08-21T05:23:08;4.27;;;3.87;;
46505;SDS011;32220;49.808;9.968;2022-08-21T05:25:38;3.77;;;2.93;;
46505;SDS011;32220;49.808;9.968;2022-08-21T05:28:06;3.80;;;3.50;;
46505;SDS011;32220;49.808;9.968;2022-08-21T05:30:34;3.47;;;3.17;;
46505;SDS011;32220;49.808;9.968;2022-08-21T05:33:04;3.77;;;3.10;;
46505;SDS011;32220;49.808;9.968;2022-08-21T05:35:33;3.60;;;3.30;;
46505;SDS011;32220;49.808;9.968;2022-08-21T05:38:02;3.70;;;3.37;;
46505;SDS011;32220;49.808;9.968;2022-08-21T05:40:32;4.03;;;3.63;;
46505;SDS011;32220;49.808;9.968;2022-08-21T05:43:00;4.53;;;4.03;;
46505;SDS011;32220;49.808;9.968;2022-08-21T05:45:29;3.90;;;3.60;;
46505;SDS011;32220;49.808;9.968;2022-08-21T05:48:05;4.53;;;3.53;;
46505;SDS011;32220;49.808;9.968;2022-08-21T05:50:34;3.77;;;3.47;;
46505;SDS011;32220;49.808;9.968;2022-08-21T05:53:03;3.60;;;3.30;;
46505;SDS011;32220;49.808;9.968;2022-08-21T05:55:32;4.60;;;3.83;;
46505;SDS011;32220;49.808;9.968;2022-08-21T05:58:01;3.80;;;3.40;;
46505;SDS011;32220;49.808;9.968;2022-08-21T06:00:28;3.60;;;3.30;;
46505;SDS011;32220;49.808;9.968;2022-08-21T06:02:56;4.27;;;3.70;;
46505;SDS011;32220;49.808;9.968;2022-08-21T06:05:24;4.30;;;3.70;;
46505;SDS011;32220;49.808;9.968;2022-08-21T06:07:52;3.83;;;3.53;;
46505;SDS011;32220;49.808;9.968;2022-08-21T06:10:20;4.37;;;3.57;;
46505;SDS011;32220;49.808;9.968;2022-08-21T06:12:53;4.63;;;4.10;;
46505;SDS011;32220;49.808;9.968;2022-08-21T06:15:21;4.03;;;3.63;;
46505;SDS011;32220;49.808;9.968;2022-08-21T06:17:49;5.00;;;4.50;;
46505;SDS011;32220;49.808;9.968;2022-08-21T06:20:17;5.07;;;4.67;;
46505;SDS011;32220;49.808;9.968;2022-08-21T06:22:45;4.97;;;4.47;;
46505;SDS011;32220;49.808;9.968;2022-08-21T06:25:13;6.03;;;5.23;;
46505;SDS011;32220;49.808;9.968;2022-08-21T06:27:41;4.67;;;4.27;;
46505;SDS011;32220;49.808;9.968;2022-08-21T06:30:10;4.73;;;4.23;;
46505;SDS011;32220;49.808;9.968;2022-08-21T06:32:38;5.43;;;4.93;;
46505;SDS011;32220;49.808;9.968;2022-08-21T06:35:06;5.13;;;4.57;;
46505;SDS011;32220;49.808;9.968;2022-08-21T06:37:35;4.97;;;4.47;;
46505;SDS011;32220;49.808;9.968;2022-08-21T06:40:03;5.03;;;4.53;;
46505;SDS011;32220;49.808;9.968;2022-08-21T06:42:32;4.60;;;4.20;;
46505;SDS011;32220;49.808;9.968;2022-08-21T06:44:59;5.57;;;5.00;;
46505;SDS011;32220;49.808;9.968;2022-08-21T06:47:28;4.60;;;4.20;;
46505;SDS011;32220;49.808;9.968;2022-08-21T06:49:56;5.13;;;4.47;;
46505;SDS011;32220;49.808;9.968;2022-08-21T06:52:24;5.70;;;4.40;;
46505;SDS011;32220;49.808;9.968;2022-08-21T06:54:52;4.30;;;3.90;;
46505;SDS011;32220;49.808;9.968;2022-08-21T06:57:20;4.97;;;4.27;;
46505;SDS011;32220;49.808;9.968;2022-08-21T06:59:48;5.27;;;4.77;;
46505;SDS011;32220;49.808;9.968;2022-08-21T07:02:16;5.13;;;4.63;;
46505;SDS011;32220;49.808;9.968;2022-08-21T07:04:45;5.70;;;4.80;;
46505;SDS011;32220;49.808;9.968;2022-08-21T07:07:13;4.93;;;4.43;;
46505;SDS011;32220;49.808;9.968;2022-08-21T07:09:41;5.60;;;4.80;;
46505;SDS011;32220;49.808;9.968;2022-08-21T07:12:08;6.10;;;4.40;;
46505;SDS011;32220;49.808;9.968;2022-08-21T07:14:37;4.93;;;4.50;;
46505;SDS011;32220;49.808;9.968;2022-08-21T07:17:04;5.30;;;4.53;;
46505;SDS011;32220;49.808;9.968;2022-08-21T07:19:32;5.53;;;4.83;;
46505;SDS011;32220;49.808;9.968;2022-08-21T07:22:02;5.93;;;4.40;;
46505;SDS011;32220;49.808;9.968;2022-08-21T07:24:31;4.67;;;3.90;;
46505;SDS011;32220;49.808;9.968;2022-08-21T07:26:59;4.93;;;4.43;;
46505;SDS011;32220;49.808;9.968;2022-08-21T07:29:27;5.53;;;5.07;;
46505;SDS011;32220;49.808;9.968;2022-08-21T07:31:54;5.50;;;4.77;;
46505;SDS011;32220;49.808;9.968;2022-08-21T07:34:22;4.87;;;4.30;;
46505;SDS011;32220;49.808;9.968;2022-08-21T07:36:49;5.40;;;4.20;;
46505;SDS011;32220;49.808;9.968;2022-08-21T07:39:19;5.43;;;5.03;;
46505;SDS011;32220;49.808;9.968;2022-08-21T07:41:47;5.93;;;5.00;;
46505;SDS011;32220;49.808;9.968;2022-08-21T07:44:14;4.10;;;3.73;;
46505;SDS011;32220;49.808;9.968;2022-08-21T07:46:42;5.63;;;4.17;;
46505;SDS011;32220;49.808;9.968;2022-08-21T07:49:10;4.80;;;4.20;;
46505;SDS011;32220;49.808;9.968;2022-08-21T07:51:37;5.53;;;4.70;;
46505;SDS011;32220;49.808;9.968;2022-08-21T07:54:05;5.07;;;4.67;;
46505;SDS011;32220;49.808;9.968;2022-08-21T07:56:36;4.80;;;3.77;;
46505;SDS011;32220;49.808;9.968;2022-08-21T07:59:03;4.77;;;4.30;;
46505;SDS011;32220;49.808;9.968;2022-08-21T08:01:31;4.57;;;4.17;;
46505;SDS011;32220;49.808;9.968;2022-08-21T08:03:59;4.30;;;3.40;;
46505;SDS011;32220;49.808;9.968;2022-08-21T08:06:26;3.87;;;3.57;;
46505;SDS011;32220;49.808;9.968;2022-08-21T08:08:54;4.67;;;4.27;;
46505;SDS011;32220;49.808;9.968;2022-08-21T08:11:22;6.80;;;3.60;;
46505;SDS011;32220;49.808;9.968;2022-08-21T08:13:52;3.67;;;3.37;;
46505;SDS011;32220;49.808;9.968;2022-08-21T08:16:20;4.00;;;3.60;;
46505;SDS011;32220;49.808;9.968;2022-08-21T08:18:47;4.17;;;3.77;;
46505;SDS011;32220;49.808;9.968;2022-08-21T08:21:15;4.10;;;3.73;;
46505;SDS011;32220;49.808;9.968;2022-08-21T08:23:44;3.50;;;3.20;;
46505;SDS011;32220;49.808;9.968;2022-08-21T08:26:12;3.80;;;2.83;;
46505;SDS011;32220;49.808;9.968;2022-08-21T08:28:41;4.00;;;3.70;;
46505;SDS011;32220;49.808;9.968;2022-08-21T08:31:10;3.60;;;3.30;;
46505;SDS011;32220;49.808;9.968;2022-08-21T08:33:38;3.60;;;3.30;;
46505;SDS011;32220;49.808;9.968;2022-08-21T08:36:11;3.00;;;2.80;;
46505;SDS011;32220;49.808;9.968;2022-08-21T08:38:40;3.47;;;3.17;;
46505;SDS011;32220;49.808;9.968;2022-08-21T08:41:10;3.87;;;3.57;;
46505;SDS011;32220;49.808;9.968;2022-08-21T08:43:48;3.37;;;3.17;;
46505;SDS011;32220;49.808;9.968;2022-08-21T08:46:20;5.70;;;4.03;;
46505;SDS011;32220;49.808;9.968;2022-08-21T08:48:58;3.67;;;3.37;;
46505;SDS011;32220;49.808;9.968;2022-08-21T08:51:38;3.93;;;3.63;;
46505;SDS011;32220;49.808;9.968;2022-08-21T08:54:11;3.90;;;3.57;;
46505;SDS011;32220;49.808;9.968;2022-08-21T08:56:42;3.87;;;3.60;;
46505;SDS011;32220;49.808;9.968;2022-08-21T08:59:13;3.07;;;2.87;;
46505;SDS011;32220;49.808;9.968;2022-08-21T09:01:45;3.60;;;3.30;;
46505;SDS011;32220;49.808;9.968;2022-08-21T09:04:16;3.30;;;3.07;;
46505;SDS011;32220;49.808;9.968;2022-08-21T09:06:53;4.20;;;3.80;;
46505;SDS011;32220;49.808;9.968;2022-08-21T09:09:30;3.20;;;3.00;;
46505;SDS011;32220;49.808;9.968;2022-08-21T09:12:10;3.47;;;3.27;;
46505;SDS011;32220;49.808;9.968;2022-08-21T09:14:47;3.33;;;2.57;;
46505;SDS011;32220;49.808;9.968;2022-08-21T09:17:31;3.63;;;3.33;;
46505;SDS011;32220;49.808;9.968;2022-08-21T09:20:17;3.20;;;2.90;;
46505;SDS011;32220;49.808;9.968;2022-08-21T09:22:55;3.40;;;3.10;;
46505;SDS011;32220;49.808;9.968;2022-08-21T09:25:32;3.30;;;3.10;;
46505;SDS011;32220;49.808;9.968;2022-08-21T09:28:07;3.17;;;2.97;;
46505;SDS011;32220;49.808;9.968;2022-08-21T09:30:37;3.17;;;2.87;;
46505;SDS011;32220;49.808;9.968;2022-08-21T09:33:11;3.27;;;3.03;;
46505;SDS011;32220;49.808;9.968;2022-08-21T09:35:48;3.20;;;3.00;;
46505;SDS011;32220;49.808;9.968;2022-08-21T09:38:26;3.60;;;3.33;;
46505;SDS011;32220;49.808;9.968;2022-08-21T09:40:58;4.17;;;3.77;;
46505;SDS011;32220;49.808;9.968;2022-08-21T09:43:29;3.13;;;2.73;;
46505;SDS011;32220;49.808;9.968;2022-08-21T09:46:02;3.50;;;3.20;;
46505;SDS011;32220;49.808;9.968;2022-08-21T09:48:40;3.50;;;3.20;;
46505;SDS011;32220;49.808;9.968;2022-08-21T09:51:11;3.17;;;2.87;;
46505;SDS011;32220;49.808;9.968;2022-08-21T09:53:43;3.10;;;2.80;;
46505;SDS011;32220;49.808;9.968;2022-08-21T09:56:19;2.53;;;2.33;;
46505;SDS011;32220;49.808;9.968;2022-08-21T09:59:14;3.20;;;2.90;;
46505;SDS011;32220;49.808;9.968;2022-08-21T10:01:49;3.40;;;3.10;;
46505;SDS011;32220;49.808;9.968;2022-08-21T10:04:23;2.93;;;2.73;;
46505;SDS011;32220;49.808;9.968;2022-08-21T10:07:05;2.83;;;2.60;;
46505;SDS011;32220;49.808;9.968;2022-08-21T10:09:33;3.10;;;2.43;;
46505;SDS011;32220;49.808;9.968;2022-08-21T10:12:06;3.70;;;2.67;;
46505;SDS011;32220;49.808;9.968;2022-08-21T10:14:44;2.57;;;2.37;;
46505;SDS011;32220;49.808;9.968;2022-08-21T10:17:21;3.30;;;2.30;;
46505;SDS011;32220;49.808;9.968;2022-08-21T10:20:03;3.83;;;2.60;;
46505;SDS011;32220;49.808;9.968;2022-08-21T10:22:38;2.83;;;2.60;;
46505;SDS011;32220;49.808;9.968;2022-08-21T10:25:15;2.53;;;2.33;;
46505;SDS011;32220;49.808;9.968;2022-08-21T10:27:50;2.87;;;2.67;;
46505;SDS011;32220;49.808;9.968;2022-08-21T10:30:30;2.70;;;2.37;;
46505;SDS011;32220;49.808;9.968;2022-08-21T10:33:07;2.37;;;2.17;;
46505;SDS011;32220;49.808;9.968;2022-08-21T10:35:47;2.33;;;1.93;;
46505;SDS011;32220;49.808;9.968;2022-08-21T10:41:27;2.95;;;2.53;;
46505;SDS011;32220;49.808;9.968;2022-08-21T10:44:06;2.80;;;2.60;;
46505;SDS011;32220;49.808;9.968;2022-08-21T10:46:49;2.40;;;2.30;;
46505;SDS011;32220;49.808;9.968;2022-08-21T10:49:24;2.80;;;2.50;;
46505;SDS011;32220;49.808;9.968;2022-08-21T10:52:02;3.38;;;2.58;;
46505;SDS011;32220;49.808;9.968;2022-08-21T10:54:50;2.53;;;2.33;;
46505;SDS011;32220;49.808;9.968;2022-08-21T10:57:25;2.75;;;2.17;;
46505;SDS011;32220;49.808;9.968;2022-08-21T11:00:02;2.50;;;2.00;;
46505;SDS011;32220;49.808;9.968;2022-08-21T11:02:35;2.63;;;2.42;;
46505;SDS011;32220;49.808;9.968;2022-08-21T11:05:11;2.45;;;2.22;;
46505;SDS011;32220;49.808;9.968;2022-08-21T11:07:45;2.60;;;2.40;;
46505;SDS011;32220;49.808;9.968;2022-08-21T11:10:18;3.50;;;2.38;;
46505;SDS011;32220;49.808;9.968;2022-08-21T11:12:54;2.40;;;2.15;;
46505;SDS011;32220;49.808;9.968;2022-08-21T11:15:32;3.10;;;2.80;;
46505;SDS011;32220;49.808;9.968;2022-08-21T11:18:12;3.88;;;2.20;;
46505;SDS011;32220;49.808;9.968;2022-08-21T11:20:48;2.50;;;2.20;;
46505;SDS011;32220;49.808;9.968;2022-08-21T11:23:25;2.78;;;2.33;;
46505;SDS011;32220;49.808;9.968;2022-08-21T11:26:00;2.63;;;2.00;;
46505;SDS011;32220;49.808;9.968;2022-08-21T11:28:33;2.45;;;2.25;;
46505;SDS011;32220;49.808;9.968;2022-08-21T11:31:08;2.08;;;1.98;;
46505;SDS011;32220;49.808;9.968;2022-08-21T11:33:48;2.30;;;2.13;;
46505;SDS011;32220;49.808;9.968;2022-08-21T11:36:28;2.77;;;2.47;;
46505;SDS011;32220;49.808;9.968;2022-08-21T11:39:06;2.63;;;2.43;;
46505;SDS011;32220;49.808;9.968;2022-08-21T11:41:43;2.57;;;2.33;;
46505;SDS011;32220;49.808;9.968;2022-08-21T11:44:22;2.87;;;2.50;;
46505;SDS011;32220;49.808;9.968;2022-08-21T11:47:01;2.83;;;2.30;;
46505;SDS011;32220;49.808;9.968;2022-08-21T11:49:42;3.30;;;2.33;;
46505;SDS011;32220;49.808;9.968;2022-08-21T11:52:22;3.50;;;2.40;;
46505;SDS011;32220;49.808;9.968;2022-08-21T11:54:57;2.60;;;2.40;;
46505;SDS011;32220;49.808;9.968;2022-08-21T11:57:32;2.40;;;2.20;;
46505;SDS011;32220;49.808;9.968;2022-08-21T12:00:03;2.70;;;2.50;;
46505;SDS011;32220;49.808;9.968;2022-08-21T12:02:40;2.38;;;2.10;;
46505;SDS011;32220;49.808;9.968;2022-08-21T12:05:26;2.78;;;2.30;;
46505;SDS011;32220;49.808;9.968;2022-08-21T12:08:00;3.38;;;2.28;;
46505;SDS011;32220;49.808;9.968;2022-08-21T12:10:33;2.60;;;2.40;;
46505;SDS011;32220;49.808;9.968;2022-08-21T12:13:08;2.33;;;2.13;;
46505;SDS011;32220;49.808;9.968;2022-08-21T12:15:39;2.95;;;2.20;;
46505;SDS011;32220;49.808;9.968;2022-08-21T12:18:19;2.20;;;2.00;;
46505;SDS011;32220;49.808;9.968;2022-08-21T12:20:57;2.10;;;1.90;;
46505;SDS011;32220;49.808;9.968;2022-08-21T12:23:29;3.08;;;1.95;;
46505;SDS011;32220;49.808;9.968;2022-08-21T12:26:02;2.15;;;1.92;;
46505;SDS011;32220;49.808;9.968;2022-08-21T12:28:41;2.30;;;2.10;;
46505;SDS011;32220;49.808;9.968;2022-08-21T12:31:17;2.20;;;2.00;;
46505;SDS011;32220;49.808;9.968;2022-08-21T12:33:49;2.00;;;1.88;;
46505;SDS011;32220;49.808;9.968;2022-08-21T12:36:22;2.40;;;2.13;;
46505;SDS011;32220;49.808;9.968;2022-08-21T12:38:54;3.75;;;2.35;;
46505;SDS011;32220;49.808;9.968;2022-08-21T12:41:26;2.55;;;2.35;;
46505;SDS011;32220;49.808;9.968;2022-08-21T12:43:57;2.90;;;2.03;;
46505;SDS011;32220;49.808;9.968;2022-08-21T12:46:34;2.47;;;2.28;;
46505;SDS011;32220;49.808;9.968;2022-08-21T12:49:07;2.28;;;2.08;;
46505;SDS011;32220;49.808;9.968;2022-08-21T12:51:47;2.00;;;1.77;;
46505;SDS011;32220;49.808;9.968;2022-08-21T12:54:24;2.08;;;1.88;;
46505;SDS011;32220;49.808;9.968;2022-08-21T12:57:01;2.25;;;2.05;;
46505;SDS011;32220;49.808;9.968;2022-08-21T12:59:31;2.72;;;1.90;;
46505;SDS011;32220;49.808;9.968;2022-08-21T13:02:05;3.25;;;2.00;;
46505;SDS011;32220;49.808;9.968;2022-08-21T13:04:42;3.47;;;2.20;;
46505;SDS011;32220;49.808;9.968;2022-08-21T13:07:11;2.33;;;1.90;;
46505;SDS011;32220;49.808;9.968;2022-08-21T13:09:44;2.40;;;1.75;;
46505;SDS011;32220;49.808;9.968;2022-08-21T13:12:17;2.30;;;2.00;;
46505;SDS011;32220;49.808;9.968;2022-08-21T13:14:47;2.33;;;2.10;;
46505;SDS011;32220;49.808;9.968;2022-08-21T13:17:18;2.70;;;2.25;;
46505;SDS011;32220;49.808;9.968;2022-08-21T13:19:57;2.83;;;2.47;;
46505;SDS011;32220;49.808;9.968;2022-08-21T13:22:27;2.30;;;2.10;;
46505;SDS011;32220;49.808;9.968;2022-08-21T13:24:56;2.15;;;1.95;;
46505;SDS011;32220;49.808;9.968;2022-08-21T13:27:29;4.00;;;3.07;;
46505;SDS011;32220;49.808;9.968;2022-08-21T13:30:05;2.20;;;1.95;;
46505;SDS011;32220;49.808;9.968;2022-08-21T13:32:36;3.20;;;2.17;;
46505;SDS011;32220;49.808;9.968;2022-08-21T13:35:13;3.80;;;2.55;;
46505;SDS011;32220;49.808;9.968;2022-08-21T13:37:44;2.40;;;2.20;;
46505;SDS011;32220;49.808;9.968;2022-08-21T13:40:14;2.30;;;2.10;;
46505;SDS011;32220;49.808;9.968;2022-08-21T13:42:46;2.50;;;2.20;;
46505;SDS011;32220;49.808;9.968;2022-08-21T13:45:21;2.93;;;2.33;;
46505;SDS011;32220;49.808;9.968;2022-08-21T13:47:50;2.90;;;2.33;;
46505;SDS011;32220;49.808;9.968;2022-08-21T13:50:19;2.43;;;2.23;;
46505;SDS011;32220;49.808;9.968;2022-08-21T13:52:55;3.50;;;2.10;;
46505;SDS011;32220;49.808;9.968;2022-08-21T13:55:25;2.50;;;2.30;;
46505;SDS011;32220;49.808;9.968;2022-08-21T13:58:04;2.37;;;2.17;;
46505;SDS011;32220;49.808;9.968;2022-08-21T14:00:34;3.57;;;2.10;;
46505;SDS011;32220;49.808;9.968;2022-08-21T14:03:10;4.67;;;2.50;;
46505;SDS011;32220;49.808;9.968;2022-08-21T14:05:43;3.37;;;2.33;;
46505;SDS011;32220;49.808;9.968;2022-08-21T14:08:14;2.90;;;2.50;;
46505;SDS011;32220;49.808;9.968;2022-08-21T14:10:48;2.30;;;2.10;;
46505;SDS011;32220;49.808;9.968;2022-08-21T14:13:27;2.50;;;2.30;;
46505;SDS011;32220;49.808;9.968;2022-08-21T14:16:01;3.00;;;2.37;;
46505;SDS011;32220;49.808;9.968;2022-08-21T14:18:30;3.17;;;2.50;;
46505;SDS011;32220;49.808;9.968;2022-08-21T14:21:06;2.87;;;2.30;;
46505;SDS011;32220;49.808;9.968;2022-08-21T14:23:37;5.95;;;2.63;;
46505;SDS011;32220;49.808;9.968;2022-08-21T14:26:06;2.60;;;2.40;;
46505;SDS011;32220;49.808;9.968;2022-08-21T14:28:37;2.25;;;2.08;;
46505;SDS011;32220;49.808;9.968;2022-08-21T14:31:11;2.72;;;2.22;;
46505;SDS011;32220;49.808;9.968;2022-08-21T14:33:41;2.15;;;1.95;;
46505;SDS011;32220;49.808;9.968;2022-08-21T14:36:10;2.60;;;2.20;;
46505;SDS011;32220;49.808;9.968;2022-08-21T14:38:38;2.65;;;2.20;;
46505;SDS011;32220;49.808;9.968;2022-08-21T14:41:10;2.88;;;2.67;;
46505;SDS011;32220;49.808;9.968;2022-08-21T14:43:45;2.78;;;2.28;;
46505;SDS011;32220;49.808;9.968;2022-08-21T14:46:16;2.67;;;2.38;;
46505;SDS011;32220;49.808;9.968;2022-08-21T14:48:49;2.20;;;2.00;;
46505;SDS011;32220;49.808;9.968;2022-08-21T14:51:16;2.65;;;2.38;;
46505;SDS011;32220;49.808;9.968;2022-08-21T14:53:45;2.50;;;2.30;;
46505;SDS011;32220;49.808;9.968;2022-08-21T14:56:13;3.47;;;2.20;;
46505;SDS011;32220;49.808;9.968;2022-08-21T14:58:42;2.78;;;2.58;;
46505;SDS011;32220;49.808;9.968;2022-08-21T15:01:15;2.45;;;2.25;;
46505;SDS011;32220;49.808;9.968;2022-08-21T15:03:45;2.80;;;2.00;;
46505;SDS011;32220;49.808;9.968;2022-08-21T15:06:15;2.87;;;2.47;;
46505;SDS011;32220;49.808;9.968;2022-08-21T15:08:44;2.63;;;2.20;;
46505;SDS011;32220;49.808;9.968;2022-08-21T15:11:12;2.33;;;2.13;;
46505;SDS011;32220;49.808;9.968;2022-08-21T15:13:46;2.40;;;2.20;;